createdAt,value
2023-05-08T00:00:13.232Z,41.80
2023-05-08T00:02:41.596Z,48.77
2023-05-08T00:05:08.647Z,45.07
2023-05-08T00:07:37.749Z,42.90
2023-05-08T00:10:05.889Z,47.23
2023-05-08T00:12:32.825Z,47.57
2023-05-08T00:14:59.905Z,46.93
2023-05-08T00:17:26.735Z,44.33
2023-05-08T00:19:53.424Z,44.80
2023-05-08T00:22:20.158Z,47.83
2023-05-08T00:24:46.865Z,47.47
2023-05-08T00:27:13.631Z,44.37
2023-05-08T00:29:40.452Z,47.47
2023-05-08T00:32:10.091Z,47.23
2023-05-08T00:34:36.784Z,50.37
2023-05-08T00:37:03.758Z,46.07
2023-05-08T00:39:30.912Z,53.50
2023-05-08T00:41:57.583Z,48.37
2023-05-08T00:44:24.279Z,50.67
2023-05-08T00:46:51.283Z,45.27
2023-05-08T00:49:18.843Z,50.57
2023-05-08T00:51:52.488Z,51.43
2023-05-08T00:54:19.902Z,50.87
2023-05-08T00:56:50.788Z,47.53
2023-05-08T00:59:20.583Z,51.00
2023-05-08T01:01:48.784Z,48.93
2023-05-08T01:04:16.031Z,47.30
2023-05-08T01:06:42.816Z,48.73
2023-05-08T01:09:09.483Z,53.67
2023-05-08T01:11:47.060Z,50.03
2023-05-08T01:14:17.485Z,57.73
2023-05-08T01:16:56.386Z,54.83
2023-05-08T01:19:35.034Z,56.87
2023-05-08T01:22:25.959Z,64.53
2023-05-08T01:25:27.886Z,59.40
2023-05-08T01:28:31.074Z,54.00
2023-05-08T01:31:32.409Z,52.60
2023-05-08T01:34:06.299Z,58.73
2023-05-08T01:36:53.683Z,58.87
2023-05-08T01:39:22.505Z,52.13
2023-05-08T01:42:04.519Z,64.00
2023-05-08T01:44:38.911Z,59.10
2023-05-08T01:47:08.622Z,66.53
2023-05-08T01:49:38.337Z,60.83
2023-05-08T01:52:10.208Z,51.90
2023-05-08T01:54:44.613Z,62.60
2023-05-08T01:57:13.871Z,61.80
2023-05-08T01:59:43.021Z,46.10
2023-05-08T02:02:11.311Z,57.93
2023-05-08T02:04:39.831Z,59.10
2023-05-08T02:07:08.009Z,60.87
2023-05-08T02:09:35.513Z,64.57
2023-05-08T02:12:03.593Z,60.67
2023-05-08T02:14:31.996Z,59.03
2023-05-08T02:17:01.973Z,57.53
2023-05-08T02:19:30.281Z,60.67
2023-05-08T02:21:58.730Z,59.67
2023-05-08T02:24:26.361Z,64.10
2023-05-08T02:26:54.670Z,61.73
2023-05-08T02:29:23.211Z,67.33
2023-05-08T02:31:50.618Z,65.20
2023-05-08T02:34:18.574Z,61.87
2023-05-08T02:36:45.850Z,66.90
2023-05-08T02:39:15.060Z,65.63
2023-05-08T02:41:42.398Z,70.47
2023-05-08T02:44:09.658Z,70.17
2023-05-08T02:46:47.905Z,62.30
2023-05-08T02:49:20.563Z,71.17
2023-05-08T02:52:21.909Z,72.63
2023-05-08T02:55:20.788Z,68.03
2023-05-08T02:58:04.073Z,67.80
2023-05-08T03:00:42.388Z,71.00
2023-05-08T03:03:24.280Z,70.97
2023-05-08T03:05:56.902Z,72.40
2023-05-08T03:08:29.816Z,73.90
2023-05-08T03:11:01.134Z,70.93
2023-05-08T03:13:31.194Z,63.27
2023-05-08T03:16:02.164Z,71.00
2023-05-08T03:18:36.418Z,61.13
2023-05-08T03:21:04.479Z,70.07
2023-05-08T03:23:35.218Z,67.27
2023-05-08T03:26:03.061Z,66.90
2023-05-08T03:28:31.860Z,63.57
2023-05-08T03:30:59.484Z,61.20
2023-05-08T03:33:28.247Z,60.97
2023-05-08T03:35:56.529Z,70.87
2023-05-08T03:38:23.535Z,61.07
2023-05-08T03:40:50.434Z,65.33
2023-05-08T03:43:19.082Z,68.60
2023-05-08T03:45:46.421Z,61.60
2023-05-08T03:48:14.806Z,63.37
2023-05-08T03:50:42.391Z,59.07
2023-05-08T03:53:09.167Z,62.63
2023-05-08T03:55:36.666Z,63.20
2023-05-08T03:58:26.690Z,57.67
2023-05-08T04:01:22.872Z,57.13
2023-05-08T04:04:07.860Z,59.10
2023-05-08T04:06:50.207Z,58.30
2023-05-08T04:09:31.348Z,60.33
2023-05-08T04:12:05.311Z,55.00
2023-05-08T04:14:42.692Z,58.93
2023-05-08T04:17:11.661Z,57.63
2023-05-08T04:19:43.138Z,58.10
2023-05-08T04:22:11.875Z,57.03
2023-05-08T04:24:44.405Z,57.13
2023-05-08T04:27:12.711Z,55.97
2023-05-08T04:29:40.110Z,58.40
2023-05-08T04:32:08.478Z,59.07
2023-05-08T04:34:36.313Z,55.07
2023-05-08T04:37:03.720Z,57.40
2023-05-08T04:39:30.348Z,58.70
2023-05-08T04:42:02.610Z,58.87
2023-05-08T04:44:29.726Z,55.30
2023-05-08T04:46:56.464Z,58.13
2023-05-08T04:49:23.140Z,61.80
2023-05-08T04:51:49.825Z,56.43
2023-05-08T04:54:16.517Z,61.63
2023-05-08T04:56:43.202Z,56.73
2023-05-08T04:59:10.019Z,56.63
2023-05-08T05:01:36.881Z,61.57
2023-05-08T05:04:03.886Z,59.10
2023-05-08T05:06:33.915Z,59.63
2023-05-08T05:09:00.788Z,59.03
2023-05-08T05:11:27.859Z,54.20
2023-05-08T05:13:54.632Z,55.60
2023-05-08T05:16:21.411Z,51.83
2023-05-08T05:18:48.171Z,56.57
2023-05-08T05:21:14.929Z,51.13
2023-05-08T05:23:42.213Z,45.57
2023-05-08T05:26:10.560Z,51.53
2023-05-08T05:28:37.312Z,47.70
2023-05-08T05:31:04.496Z,50.40
2023-05-08T05:33:31.211Z,49.90
2023-05-08T05:35:58.705Z,46.13
2023-05-08T05:38:25.648Z,40.37
2023-05-08T05:40:52.395Z,42.30
2023-05-08T05:43:19.206Z,41.93
2023-05-08T05:45:45.901Z,42.70
2023-05-08T05:48:12.678Z,40.17
2023-05-08T05:50:39.393Z,36.30
2023-05-08T05:53:06.140Z,36.38
2023-05-08T05:55:33.017Z,29.92
2023-05-08T05:57:59.688Z,30.23
2023-05-08T06:00:26.532Z,24.60
2023-05-08T06:02:53.520Z,26.92
2023-05-08T06:05:20.961Z,22.77
2023-05-08T06:07:47.688Z,25.42
2023-05-08T06:10:14.584Z,23.25
2023-05-08T06:12:41.899Z,20.88
2023-05-08T06:15:09.843Z,21.42
2023-05-08T06:17:36.687Z,21.70
2023-05-08T06:20:04.129Z,20.15
2023-05-08T06:22:30.785Z,19.75
2023-05-08T06:24:57.503Z,21.98
2023-05-08T06:27:24.412Z,20.88
2023-05-08T06:29:53.224Z,20.75
2023-05-08T06:32:20.662Z,23.05
2023-05-08T06:34:47.700Z,21.23
2023-05-08T06:37:14.484Z,20.30
2023-05-08T06:39:41.152Z,20.42
2023-05-08T06:42:08.982Z,20.45
2023-05-08T06:44:35.953Z,30.05
2023-05-08T06:47:02.824Z,20.92
2023-05-08T06:49:29.543Z,21.00
2023-05-08T06:51:57.964Z,22.05
2023-05-08T06:54:24.973Z,22.85
2023-05-08T06:56:53.629Z,20.95
2023-05-08T06:59:21.480Z,21.95
2023-05-08T07:01:48.348Z,20.95
2023-05-08T07:04:15.136Z,21.17
2023-05-08T07:06:41.914Z,21.88
2023-05-08T07:09:09.666Z,26.33
2023-05-08T07:11:36.350Z,22.50
2023-05-08T07:14:03.049Z,22.80
2023-05-08T07:16:29.944Z,21.50
2023-05-08T07:18:56.687Z,21.85
2023-05-08T07:21:23.381Z,21.63
2023-05-08T07:23:51.755Z,20.90
2023-05-08T07:26:18.727Z,21.13
2023-05-08T07:28:45.424Z,34.60
2023-05-08T07:31:12.196Z,22.38
2023-05-08T07:33:38.910Z,23.27
2023-05-08T07:36:05.869Z,35.67
2023-05-08T07:38:32.600Z,23.08
2023-05-08T07:41:01.527Z,118.65
2023-05-08T07:43:28.489Z,25.48
2023-05-08T07:45:55.327Z,24.30
2023-05-08T07:48:22.130Z,54.00
2023-05-08T07:50:52.043Z,28.70
2023-05-08T07:53:18.750Z,24.90
2023-05-08T07:55:45.431Z,21.75
2023-05-08T07:58:12.106Z,22.45
2023-05-08T08:00:39.693Z,24.20
2023-05-08T08:03:07.166Z,24.20
2023-05-08T08:05:33.950Z,46.40
2023-05-08T08:08:00.805Z,47.05
2023-05-08T08:10:27.626Z,27.38
2023-05-08T08:12:54.424Z,27.15
2023-05-08T08:15:21.197Z,34.58
2023-05-08T08:17:48.977Z,25.77
2023-05-08T08:20:15.894Z,24.20
2023-05-08T08:22:42.652Z,33.10
2023-05-08T08:25:09.576Z,36.95
2023-05-08T08:27:36.335Z,42.22
2023-05-08T08:30:16.308Z,30.67
2023-05-08T08:32:44.706Z,46.33
2023-05-08T08:35:12.034Z,50.38
2023-05-08T08:37:38.991Z,31.40
2023-05-08T08:40:06.472Z,28.92
2023-05-08T08:42:33.483Z,35.70
2023-05-08T08:45:01.345Z,27.95
2023-05-08T08:47:29.819Z,27.80
2023-05-08T08:50:02.139Z,31.90
2023-05-08T08:52:36.377Z,30.50
2023-05-08T08:55:08.134Z,37.05
2023-05-08T08:57:39.064Z,38.20
2023-05-08T09:00:09.596Z,51.85
2023-05-08T09:02:36.836Z,41.92
2023-05-08T09:05:04.022Z,38.53
2023-05-08T09:07:30.929Z,43.13
2023-05-08T09:09:57.876Z,44.22
2023-05-08T09:12:24.643Z,38.42
2023-05-08T09:14:51.792Z,42.13
2023-05-08T09:17:18.491Z,65.20
2023-05-08T09:19:45.330Z,37.10
2023-05-08T09:22:12.625Z,38.92
2023-05-08T09:25:00.033Z,41.75
2023-05-08T09:27:29.419Z,37.10
2023-05-08T09:30:04.111Z,40.38
2023-05-08T09:32:32.451Z,34.42
2023-05-08T09:34:59.580Z,38.05
2023-05-08T09:37:27.344Z,38.75
2023-05-08T09:39:55.004Z,43.25
2023-05-08T09:42:23.425Z,37.90
2023-05-08T09:44:52.082Z,38.28
2023-05-08T09:47:21.788Z,38.63
2023-05-08T09:50:09.123Z,37.17
2023-05-08T09:52:37.741Z,35.85
2023-05-08T09:55:11.298Z,36.95
2023-05-08T09:57:40.401Z,39.67
2023-05-08T10:00:09.844Z,49.40
2023-05-08T10:02:38.329Z,39.75
2023-05-08T10:05:23.546Z,41.17
2023-05-08T10:07:50.591Z,42.47
2023-05-08T10:10:32.170Z,39.30
2023-05-08T10:12:59.210Z,39.67
2023-05-08T10:15:29.474Z,56.72
2023-05-08T10:18:07.481Z,41.08
2023-05-08T10:20:42.514Z,43.50
2023-05-08T10:23:14.452Z,40.25
2023-05-08T10:25:46.875Z,42.08
2023-05-08T10:28:37.061Z,43.85
2023-05-08T10:31:05.569Z,43.45
2023-05-08T10:33:34.646Z,39.55
2023-05-08T10:36:01.916Z,45.60
2023-05-08T10:38:30.557Z,41.40
2023-05-08T10:41:01.263Z,41.08
2023-05-08T10:43:29.857Z,38.80
2023-05-08T10:45:57.802Z,38.15
2023-05-08T10:48:32.867Z,42.55
2023-05-08T10:51:18.108Z,40.97
2023-05-08T10:53:55.383Z,42.70
2023-05-08T10:56:28.896Z,43.88
2023-05-08T10:58:57.705Z,46.53
2023-05-08T11:01:28.367Z,47.13
2023-05-08T11:03:56.237Z,44.60
2023-05-08T11:06:52.940Z,46.42
2023-05-08T11:09:30.476Z,49.25
2023-05-08T11:12:22.913Z,48.45
2023-05-08T11:15:06.986Z,42.40
2023-05-08T11:17:34.171Z,47.28
2023-05-08T11:20:03.351Z,47.75
2023-05-08T11:22:32.785Z,53.47
2023-05-08T11:25:02.365Z,50.10
2023-05-08T11:27:46.775Z,55.35
2023-05-08T11:30:25.950Z,55.53
2023-05-08T11:33:05.259Z,51.97
2023-05-08T11:35:48.563Z,57.17
2023-05-08T11:38:35.720Z,59.50
2023-05-08T11:41:10.316Z,61.05
2023-05-08T11:44:14.886Z,66.85
2023-05-08T11:46:52.582Z,51.83
2023-05-08T11:49:26.091Z,75.53
2023-05-08T11:51:55.379Z,79.90
2023-05-08T11:54:22.965Z,84.28
2023-05-08T11:56:50.718Z,84.05
2023-05-08T11:59:18.573Z,92.53
2023-05-08T12:01:59.877Z,89.68
2023-05-08T12:04:46.833Z,92.72
2023-05-08T12:07:13.997Z,91.25
2023-05-08T12:09:40.865Z,75.90
2023-05-08T12:12:07.564Z,82.95
2023-05-08T12:14:34.839Z,79.95
2023-05-08T12:17:02.750Z,79.88
2023-05-08T12:19:29.583Z,76.10
2023-05-08T12:21:57.870Z,69.72
2023-05-08T12:24:26.151Z,73.78
2023-05-08T12:26:56.621Z,70.97
2023-05-08T12:29:24.991Z,62.10
2023-05-08T12:31:52.674Z,50.42
2023-05-08T12:34:20.593Z,57.38
2023-05-08T12:36:47.296Z,56.42
2023-05-08T12:39:18.377Z,54.38
2023-05-08T12:41:49.883Z,56.13
2023-05-08T12:44:24.260Z,57.50
2023-05-08T12:46:56.384Z,49.63
2023-05-08T12:49:32.599Z,49.78
2023-05-08T12:52:07.967Z,51.75
2023-05-08T12:54:39.828Z,48.78
2023-05-08T12:57:14.162Z,50.15
2023-05-08T12:59:42.059Z,50.00
2023-05-08T13:02:21.399Z,50.03
2023-05-08T13:04:48.215Z,52.80
2023-05-08T13:07:15.043Z,59.95
2023-05-08T13:09:59.827Z,59.58
2023-05-08T13:12:26.573Z,61.65
2023-05-08T13:14:53.287Z,59.75
2023-05-08T13:17:20.001Z,64.88
2023-05-08T13:19:46.676Z,61.42
2023-05-08T13:22:13.336Z,59.72
2023-05-08T13:24:40.001Z,63.63
2023-05-08T13:27:06.776Z,62.30
2023-05-08T13:29:33.404Z,62.20
2023-05-08T13:32:00.167Z,64.38
2023-05-08T13:34:27.034Z,65.55
2023-05-08T13:36:53.821Z,61.70
2023-05-08T13:39:20.779Z,59.30
2023-05-08T13:41:47.445Z,62.10
2023-05-08T13:44:14.108Z,65.15
2023-05-08T13:46:40.781Z,56.60
2023-05-08T13:49:07.403Z,61.00
2023-05-08T13:51:34.706Z,55.40
2023-05-08T13:54:01.397Z,62.67
2023-05-08T13:56:30.690Z,55.58
2023-05-08T13:58:57.362Z,56.95
2023-05-08T14:01:27.115Z,56.08
2023-05-08T14:03:55.058Z,60.63
2023-05-08T14:06:22.280Z,57.92
2023-05-08T14:08:51.105Z,57.50
2023-05-08T14:11:19.520Z,55.90
2023-05-08T14:13:46.164Z,54.17
2023-05-08T14:16:14.527Z,51.17
2023-05-08T14:18:41.378Z,54.00
2023-05-08T14:21:08.027Z,52.55
2023-05-08T14:23:36.070Z,53.72
2023-05-08T14:26:02.863Z,54.20
2023-05-08T14:28:29.535Z,50.67
2023-05-08T14:30:56.362Z,42.60
2023-05-08T14:33:23.111Z,46.67
2023-05-08T14:35:49.800Z,45.35
2023-05-08T14:38:16.485Z,47.83
2023-05-08T14:40:43.139Z,49.90
2023-05-08T14:43:09.822Z,42.63
2023-05-08T14:45:36.545Z,39.15
2023-05-08T14:48:03.259Z,43.28
2023-05-08T14:50:30.511Z,46.22
2023-05-08T14:52:57.266Z,41.60
2023-05-08T14:55:24.481Z,39.38
2023-05-08T14:57:51.357Z,45.97
2023-05-08T15:00:18.547Z,45.58
2023-05-08T15:02:45.391Z,43.08
2023-05-08T15:05:19.244Z,43.80
2023-05-08T15:07:47.294Z,43.75
2023-05-08T15:10:13.989Z,43.58
2023-05-08T15:12:40.704Z,46.35
2023-05-08T15:15:07.815Z,43.13
2023-05-08T15:17:36.413Z,44.25
2023-05-08T15:20:04.560Z,42.83
2023-05-08T15:22:31.423Z,45.13
2023-05-08T15:25:02.748Z,45.42
2023-05-08T15:27:29.941Z,49.95
2023-05-08T15:29:56.881Z,52.47
2023-05-08T15:32:24.153Z,46.83
2023-05-08T15:34:51.091Z,57.00
2023-05-08T15:37:17.916Z,57.00
2023-05-08T15:39:44.580Z,58.45
2023-05-08T15:42:11.250Z,58.80
2023-05-08T15:44:54.111Z,64.18
2023-05-08T15:47:23.200Z,63.08
2023-05-08T15:49:51.220Z,66.25
2023-05-08T15:52:19.611Z,67.47
2023-05-08T15:54:47.355Z,65.28
2023-05-08T15:57:14.367Z,61.10
2023-05-08T15:59:41.286Z,66.40
2023-05-08T16:02:08.629Z,62.47
2023-05-08T16:04:35.919Z,73.28
2023-05-08T16:07:02.743Z,69.68
2023-05-08T16:09:29.464Z,63.58
2023-05-08T16:11:56.959Z,61.47
2023-05-08T16:14:23.628Z,64.22
2023-05-08T16:16:51.597Z,65.55
2023-05-08T16:19:18.298Z,60.05
2023-05-08T16:21:48.548Z,65.03
2023-05-08T16:24:15.298Z,59.28
2023-05-08T16:26:42.166Z,67.00
2023-05-08T16:29:08.846Z,58.58
2023-05-08T16:31:35.825Z,65.85
2023-05-08T16:34:02.593Z,57.92
2023-05-08T16:36:29.386Z,63.35
2023-05-08T16:38:56.050Z,62.05
2023-05-08T16:41:23.137Z,58.85
2023-05-08T16:43:49.817Z,56.42
2023-05-08T16:46:30.153Z,58.47
2023-05-08T16:48:57.423Z,53.88
2023-05-08T16:51:24.112Z,51.28
2023-05-08T16:53:50.807Z,53.45
2023-05-08T16:56:17.608Z,55.47
2023-05-08T16:58:44.283Z,59.10
2023-05-08T17:01:11.763Z,50.90
2023-05-08T17:03:38.716Z,44.22
2023-05-08T17:06:09.343Z,46.78
2023-05-08T17:08:36.166Z,42.65
2023-05-08T17:11:03.215Z,50.38
2023-05-08T17:13:30.143Z,49.08
2023-05-08T17:15:57.785Z,48.67
2023-05-08T17:18:24.945Z,56.08
2023-05-08T17:20:51.696Z,53.22
2023-05-08T17:23:18.415Z,48.88
2023-05-08T17:25:45.275Z,48.40
2023-05-08T17:28:12.079Z,49.05
2023-05-08T17:30:38.804Z,49.25
2023-05-08T17:33:07.222Z,51.60
2023-05-08T17:35:34.288Z,53.45
2023-05-08T17:38:01.089Z,57.08
2023-05-08T17:40:28.860Z,59.15
2023-05-08T17:42:55.679Z,53.42
2023-05-08T17:45:22.394Z,44.25
2023-05-08T17:47:49.400Z,46.03
2023-05-08T17:50:16.250Z,46.40
2023-05-08T17:52:43.030Z,41.00
2023-05-08T17:55:10.208Z,43.97
2023-05-08T17:57:36.859Z,44.00
2023-05-08T18:00:06.061Z,47.58
2023-05-08T18:02:32.905Z,49.10
2023-05-08T18:04:59.644Z,47.47
2023-05-08T18:07:26.299Z,48.85
2023-05-08T18:09:52.974Z,54.22
2023-05-08T18:12:19.689Z,50.63
2023-05-08T18:14:47.832Z,51.58
2023-05-08T18:17:22.427Z,51.45
2023-05-08T18:19:49.529Z,49.03
2023-05-08T18:22:16.508Z,47.88
2023-05-08T18:24:45.579Z,52.22
2023-05-08T18:27:12.361Z,55.95
2023-05-08T18:29:39.236Z,59.47
2023-05-08T18:32:06.028Z,60.17
2023-05-08T18:34:33.648Z,52.72
2023-05-08T18:37:00.435Z,50.17
2023-05-08T18:39:27.145Z,58.95
2023-05-08T18:41:53.834Z,56.97
2023-05-08T18:44:20.523Z,55.78
2023-05-08T18:46:47.300Z,60.30
2023-05-08T18:49:14.006Z,63.50
2023-05-08T18:51:40.709Z,71.35
2023-05-08T18:54:07.393Z,65.28
2023-05-08T18:56:37.068Z,74.97
2023-05-08T18:59:03.793Z,64.95
2023-05-08T19:01:30.578Z,53.63
2023-05-08T19:03:57.376Z,45.47
2023-05-08T19:06:24.095Z,63.80
2023-05-08T19:08:52.200Z,68.25
2023-05-08T19:11:19.058Z,68.07
2023-05-08T19:13:52.507Z,72.78
2023-05-08T19:16:19.250Z,70.95
2023-05-08T19:18:45.932Z,70.47
2023-05-08T19:21:12.597Z,76.97
2023-05-08T19:23:39.289Z,74.90
2023-05-08T19:26:06.197Z,93.35
2023-05-08T19:28:33.033Z,88.57
2023-05-08T19:30:59.723Z,89.85
2023-05-08T19:33:26.651Z,107.60
2023-05-08T19:35:53.312Z,87.47
2023-05-08T19:38:20.105Z,95.63
2023-05-08T19:40:56.582Z,98.93
2023-05-08T19:43:25.862Z,93.55
2023-05-08T19:45:52.622Z,90.90
2023-05-08T19:48:20.088Z,107.93
2023-05-08T19:50:47.193Z,100.97
2023-05-08T19:53:14.323Z,99.22
2023-05-08T19:55:41.040Z,106.85
2023-05-08T19:58:07.956Z,98.65
2023-05-08T20:00:34.847Z,113.95
2023-05-08T20:03:01.676Z,112.70
2023-05-08T20:05:28.683Z,105.15
2023-05-08T20:07:55.581Z,124.43
2023-05-08T20:10:22.740Z,104.28
2023-05-08T20:12:49.811Z,111.07
2023-05-08T20:15:16.586Z,121.35
2023-05-08T20:17:43.288Z,121.63
2023-05-08T20:20:10.733Z,131.93
2023-05-08T20:22:46.479Z,116.95
2023-05-08T20:25:13.243Z,114.68
2023-05-08T20:27:40.397Z,130.20
2023-05-08T20:30:07.883Z,131.45
2023-05-08T20:32:34.633Z,119.47
2023-05-08T20:35:01.790Z,128.13
2023-05-08T20:37:28.590Z,113.15
2023-05-08T20:39:55.399Z,115.07
2023-05-08T20:42:22.234Z,121.32
2023-05-08T20:44:48.936Z,113.47
2023-05-08T20:47:15.660Z,120.65
2023-05-08T20:49:42.360Z,130.18
2023-05-08T20:52:08.996Z,107.68
2023-05-08T20:54:35.826Z,128.38
2023-05-08T20:57:02.594Z,120.90
2023-05-08T20:59:29.252Z,128.10
2023-05-08T21:01:56.321Z,118.32
2023-05-08T21:04:23.176Z,134.95
2023-05-08T21:06:51.918Z,128.65
2023-05-08T21:09:21.064Z,129.70
2023-05-08T21:11:47.715Z,133.30
2023-05-08T21:14:14.552Z,131.30
2023-05-08T21:16:41.963Z,130.20
2023-05-08T21:19:11.209Z,124.80
2023-05-08T21:21:37.986Z,124.15
2023-05-08T21:24:05.325Z,122.68
2023-05-08T21:26:32.076Z,119.28
2023-05-08T21:29:00.148Z,118.18
2023-05-08T21:31:28.806Z,135.98
2023-05-08T21:33:55.681Z,135.07
2023-05-08T21:36:22.585Z,132.73
2023-05-08T21:38:49.265Z,145.98
2023-05-08T21:41:16.253Z,138.07
2023-05-08T21:43:42.914Z,131.10
2023-05-08T21:46:09.738Z,129.32
2023-05-08T21:48:36.892Z,136.15
2023-05-08T21:51:06.271Z,143.65
2023-05-08T21:53:33.052Z,138.73
2023-05-08T21:55:59.834Z,138.35
2023-05-08T21:58:26.592Z,130.02
2023-05-08T22:00:53.397Z,126.05
2023-05-08T22:03:20.231Z,126.68
2023-05-08T22:05:47.117Z,112.40
2023-05-08T22:08:13.911Z,128.48
2023-05-08T22:10:40.796Z,112.38
2023-05-08T22:13:07.761Z,120.32
2023-05-08T22:15:34.830Z,122.65
2023-05-08T22:18:02.789Z,116.88
2023-05-08T22:20:29.854Z,126.90
2023-05-08T22:22:57.632Z,129.20
2023-05-08T22:25:25.247Z,120.38
2023-05-08T22:27:52.216Z,131.20
2023-05-08T22:30:22.027Z,121.22
2023-05-08T22:32:57.231Z,133.02
2023-05-08T22:35:25.864Z,132.45
2023-05-08T22:37:53.325Z,118.75
2023-05-08T22:40:21.481Z,132.18
2023-05-08T22:42:51.259Z,136.50
2023-05-08T22:45:18.285Z,128.18
2023-05-08T22:47:45.422Z,119.13
2023-05-08T22:50:12.458Z,135.50
2023-05-08T22:52:39.582Z,137.57
2023-05-08T22:55:07.011Z,131.88
2023-05-08T22:57:33.887Z,136.48
2023-05-08T23:00:00.784Z,119.22
2023-05-08T23:02:36.633Z,141.15
2023-05-08T23:05:03.832Z,129.82
2023-05-08T23:07:30.766Z,129.70
2023-05-08T23:09:57.626Z,134.07
2023-05-08T23:12:24.385Z,124.72
2023-05-08T23:14:51.773Z,126.30
2023-05-08T23:17:18.931Z,128.15
2023-05-08T23:19:45.854Z,137.40
2023-05-08T23:22:12.604Z,137.23
2023-05-08T23:24:39.634Z,134.57
2023-05-08T23:27:06.383Z,122.57
2023-05-08T23:29:33.064Z,122.97
2023-05-08T23:32:00.181Z,120.00
2023-05-08T23:34:26.889Z,125.47
2023-05-08T23:36:53.666Z,116.32
2023-05-08T23:39:20.540Z,128.40
2023-05-08T23:41:47.577Z,137.13
2023-05-08T23:44:15.199Z,135.23
2023-05-08T23:46:41.944Z,138.90
2023-05-08T23:49:08.718Z,126.68
2023-05-08T23:51:35.502Z,128.40
2023-05-08T23:54:02.322Z,126.55
2023-05-08T23:56:29.964Z,127.03
2023-05-08T23:58:56.948Z,140.77
